Time;durP1;ratioP1;P1;durP2;ratioP2;P2;SDS_P1;SDS_P2;PMS_P1;PMS_P2;Temp;Humidity;BMP_temperature;BMP_pressure;BME280_temperature;BME280_humidity;BME280_pressure;Samples;Min_cycle;Max_cycle;Signal;HPM_P1;HPM_P2
2022/06/09 00:01:23;;;;;;;1.02;0.30;;;23.50;47.70;;;;;;6267870;28;20048;-55
2022/06/09 00:04:30;;;;;;;0.77;0.35;;;23.50;47.70;;;;;;6272270;28;20055;-52
2022/06/09 00:07:35;;;;;;;1.00;0.30;;;23.50;47.70;;;;;;6273686;28;20075;-52
2022/06/09 00:10:40;;;;;;;0.30;0.20;;;23.50;47.80;;;;;;6275462;28;20953;-51
2022/06/09 00:13:42;;;;;;;0.50;0.30;;;23.50;47.80;;;;;;6276304;28;20047;-51
2022/06/09 00:16:43;;;;;;;0.50;0.22;;;23.50;47.70;;;;;;6278070;28;20986;-51
2022/06/09 00:19:45;;;;;;;1.08;0.30;;;23.40;47.70;;;;;;6276919;28;20086;-49
2022/06/09 00:22:47;;;;;;;0.40;0.20;;;23.50;47.70;;;;;;6273487;28;20072;-47
2022/06/09 00:25:49;;;;;;;0.50;0.22;;;23.50;47.70;;;;;;6275563;28;20072;-50
2022/06/09 00:28:51;;;;;;;0.17;0.17;;;23.50;47.60;;;;;;6277765;28;20048;-50
2022/06/09 00:31:52;;;;;;;0.50;0.20;;;23.40;47.50;;;;;;6277449;28;20067;-52
2022/06/09 00:34:54;;;;;;;0.63;0.30;;;23.40;47.60;;;;;;6280670;28;20255;-50
2022/06/09 00:37:56;;;;;;;0.88;0.30;;;23.50;47.60;;;;;;6280821;28;20042;-51
2022/06/09 00:40:58;;;;;;;0.52;0.20;;;23.40;47.50;;;;;;6281292;28;20052;-51
2022/06/09 00:44:14;;;;;;;0.50;0.30;;;23.40;47.40;;;;;;6280859;28;20506;-52
2022/06/09 00:47:20;;;;;;;0.65;0.20;;;23.60;47.50;;;;;;6286960;28;20109;-49
2022/06/09 00:50:25;;;;;;;0.50;0.30;;;23.50;47.50;;;;;;6288975;28;20055;-53
2022/06/09 00:53:31;;;;;;;0.60;0.25;;;23.50;47.40;;;;;;6273786;28;20476;-53
2022/06/09 00:56:35;;;;;;;0.47;0.30;;;23.40;47.40;;;;;;6277380;28;20295;-52
2022/06/09 00:59:38;;;;;;;0.60;0.17;;;23.40;47.40;;;;;;6276624;28;20565;-48
2022/06/09 01:02:43;;;;;;;0.43;0.28;;;23.20;47.30;;;;;;6268045;28;20332;-48
2022/06/09 01:05:48;;;;;;;0.50;0.20;;;23.30;47.40;;;;;;6274150;28;20047;-52
2022/06/09 01:08:58;;;;;;;0.63;0.20;;;23.40;47.40;;;;;;6278742;28;20048;-50
2022/06/09 01:11:59;;;;;;;0.43;0.20;;;23.40;47.40;;;;;;6261099;28;20642;-51
2022/06/09 01:15:05;;;;;;;0.85;0.30;;;23.50;47.50;;;;;;6275332;28;20074;-51
2022/06/09 01:18:16;;;;;;;0.40;0.30;;;23.30;47.70;;;;;;6274507;28;20156;-48
2022/06/09 01:21:34;;;;;;;0.40;0.30;;;23.40;47.50;;;;;;6265177;28;20121;-52
2022/06/09 01:25:09;;;;;;;0.88;0.30;;;23.30;47.50;;;;;;6274953;28;20843;-48
2022/06/09 01:28:39;;;;;;;0.77;0.20;;;23.30;47.50;;;;;;6278759;28;20052;-52
2022/06/09 01:31:46;;;;;;;0.70;0.30;;;23.40;47.60;;;;;;6273441;28;20435;-47
2022/06/09 01:35:01;;;;;;;0.50;0.25;;;23.40;47.70;;;;;;6272507;28;20560;-46
2022/06/09 01:38:03;;;;;;;0.43;0.20;;;23.30;47.70;;;;;;6275209;28;20345;-50
2022/06/09 01:41:05;;;;;;;0.30;0.20;;;23.40;47.80;;;;;;6276272;28;20439;-51
2022/06/09 01:44:06;;;;;;;0.75;0.20;;;23.30;47.70;;;;;;6272483;28;20313;-49
2022/06/09 01:47:09;;;;;;;0.40;0.28;;;23.30;47.90;;;;;;6275293;28;20121;-51
2022/06/09 01:50:16;;;;;;;0.75;0.20;;;23.30;47.90;;;;;;6273500;28;20466;-48
2022/06/09 01:53:22;;;;;;;0.40;0.20;;;23.40;47.90;;;;;;6270012;28;20292;-47
2022/06/09 01:56:28;;;;;;;0.70;0.20;;;23.40;48.00;;;;;;6271252;28;20348;-47
2022/06/09 01:59:33;;;;;;;0.38;0.20;;;23.30;48.00;;;;;;6260463;28;20567;-52
2022/06/09 02:02:41;;;;;;;0.25;0.20;;;23.40;48.10;;;;;;6272773;28;20701;-51
2022/06/09 02:05:47;;;;;;;0.77;0.30;;;23.30;48.00;;;;;;6274365;28;20388;-50
2022/06/09 02:08:49;;;;;;;0.88;0.30;;;23.30;48.10;;;;;;6276456;28;20406;-52
2022/06/09 02:11:53;;;;;;;0.30;0.30;;;23.20;48.20;;;;;;6279292;28;20363;-50
2022/06/09 02:14:58;;;;;;;0.80;0.25;;;23.30;48.20;;;;;;6272669;28;20098;-48
2022/06/09 02:18:05;;;;;;;0.50;0.30;;;23.30;48.30;;;;;;6276400;28;20070;-51
2022/06/09 02:21:11;;;;;;;0.95;0.30;;;23.30;48.30;;;;;;6275180;28;20161;-49
2022/06/09 02:24:13;;;;;;;0.40;0.40;;;23.30;48.40;;;;;;6271422;28;20355;-49
2022/06/09 02:27:14;;;;;;;0.40;0.20;;;23.30;48.40;;;;;;6270335;28;20252;-48
2022/06/09 02:30:16;;;;;;;;;;;23.30;48.50;;;;;;6273794;28;20039;-49
2022/06/09 02:33:38;;;;;;;0.50;0.20;;;23.30;48.50;;;;;;6255334;28;19984;-49
2022/06/09 02:36:40;;;;;;;0.93;0.38;;;23.30;48.50;;;;;;6275088;28;20645;-50
2022/06/09 02:39:41;;;;;;;0.55;0.28;;;23.20;48.60;;;;;;6274743;28;20391;-50
2022/06/09 02:42:42;;;;;;;;;;;23.20;48.60;;;;;;6270225;28;20848;-51
2022/06/09 02:45:44;;;;;;;0.50;0.20;;;23.20;48.70;;;;;;6274358;28;19927;-51
2022/06/09 02:48:46;;;;;;;0.65;0.30;;;23.10;48.60;;;;;;6271953;28;20369;-50
2022/06/09 02:51:48;;;;;;;0.50;0.20;;;23.20;48.70;;;;;;6273030;28;20043;-47
2022/06/09 02:54:49;;;;;;;0.30;0.20;;;22.90;48.70;;;;;;6273378;28;20603;-50
2022/06/09 02:57:51;;;;;;;0.80;0.30;;;23.10;48.90;;;;;;6270160;28;20544;-51
2022/06/09 03:00:54;;;;;;;0.55;0.30;;;23.20;49.00;;;;;;6271448;28;20160;-52
2022/06/09 03:03:56;;;;;;;0.75;0.50;;;23.10;49.00;;;;;;6272601;28;20519;-51
2022/06/09 03:06:58;;;;;;;0.52;0.40;;;23.20;49.10;;;;;;6272522;28;20664;-51
2022/06/09 03:09:59;;;;;;;0.55;0.20;;;23.20;49.20;;;;;;6272221;28;20350;-51
2022/06/09 03:13:01;;;;;;;0.80;0.20;;;23.20;49.30;;;;;;6267700;28;20048;-49
2022/06/09 03:16:04;;;;;;;0.73;0.32;;;23.20;49.30;;;;;;6267681;28;20417;-51
2022/06/09 03:19:06;;;;;;;0.93;0.30;;;23.20;49.30;;;;;;6274730;28;20850;-53
2022/06/09 03:22:08;;;;;;;0.40;0.13;;;23.20;49.40;;;;;;6270191;28;20468;-51
2022/06/09 03:25:10;;;;;;;0.60;0.20;;;23.30;49.50;;;;;;6273339;28;20504;-49
2022/06/09 03:28:11;;;;;;;0.98;0.30;;;23.10;49.40;;;;;;6270071;28;20094;-48
2022/06/09 03:31:13;;;;;;;0.17;0.13;;;23.10;49.50;;;;;;6267925;28;20193;-52
2022/06/09 03:34:16;;;;;;;0.50;0.30;;;23.10;49.50;;;;;;6272548;28;20559;-50
2022/06/09 03:37:18;;;;;;;0.68;0.28;;;23.10;49.60;;;;;;6266717;28;20709;-51
2022/06/09 03:40:21;;;;;;;0.50;0.25;;;23.20;49.60;;;;;;6276682;28;20058;-49
2022/06/09 03:43:22;;;;;;;0.65;0.30;;;23.10;49.60;;;;;;6274900;28;20155;-51
2022/06/09 03:46:24;;;;;;;0.20;0.20;;;23.10;49.70;;;;;;6273001;28;20371;-51
2022/06/09 03:49:26;;;;;;;0.25;0.25;;;23.20;49.80;;;;;;6279522;28;20040;-47
2022/06/09 03:52:28;;;;;;;0.50;0.22;;;23.00;49.70;;;;;;6269249;28;20075;-53
2022/06/09 03:55:30;;;;;;;0.40;0.28;;;23.10;50.40;;;;;;6272646;28;20351;-52
2022/06/09 03:58:31;;;;;;;0.75;0.20;;;23.10;49.80;;;;;;6273303;28;20044;-50
2022/06/09 04:01:33;;;;;;;0.30;0.20;;;23.10;49.90;;;;;;6276264;28;20886;-51
2022/06/09 04:04:35;;;;;;;0.70;0.20;;;23.10;49.90;;;;;;6278817;28;20113;-47
2022/06/09 04:07:37;;;;;;;0.65;0.30;;;23.10;49.90;;;;;;6274350;28;20494;-51
2022/06/09 04:10:38;;;;;;;0.45;0.25;;;22.70;49.80;;;;;;6280027;28;20288;-51
2022/06/09 04:13:40;;;;;;;0.25;0.15;;;22.90;49.90;;;;;;6275349;28;20181;-47
2022/06/09 04:16:44;;;;;;;0.77;0.22;;;23.10;50.10;;;;;;6276231;28;20679;-50
2022/06/09 04:19:46;;;;;;;0.57;0.20;;;23.10;50.10;;;;;;6270549;28;20373;-50
2022/06/09 04:22:48;;;;;;;0.47;0.20;;;23.00;50.10;;;;;;6271271;28;20075;-49
2022/06/09 04:25:51;;;;;;;1.50;0.30;;;23.10;50.20;;;;;;6273652;28;20044;-51
2022/06/09 04:28:53;;;;;;;1.13;0.40;;;22.90;50.10;;;;;;6270412;28;20130;-46
2022/06/09 04:31:54;;;;;;;0.65;0.30;;;23.10;50.30;;;;;;6273137;28;20471;-50
2022/06/09 04:34:56;;;;;;;0.43;0.35;;;23.10;50.30;;;;;;6272951;28;20104;-48
2022/06/09 04:38:01;;;;;;;0.30;0.30;;;23.00;50.30;;;;;;6272592;28;20051;-50
2022/06/09 04:41:04;;;;;;;0.47;0.10;;;23.10;50.30;;;;;;6274942;28;20226;-49
2022/06/09 04:44:06;;;;;;;0.40;0.20;;;23.10;50.40;;;;;;6268967;28;24765;-51
2022/06/09 04:47:08;;;;;;;0.82;0.30;;;22.90;50.30;;;;;;6273854;28;20477;-51
2022/06/09 04:50:11;;;;;;;0.52;0.30;;;23.10;50.50;;;;;;6274219;28;20163;-52
2022/06/09 04:53:13;;;;;;;0.38;0.28;;;23.10;50.60;;;;;;6269675;28;20051;-51
2022/06/09 04:56:15;;;;;;;0.52;0.30;;;23.10;50.60;;;;;;6267716;28;20559;-50
2022/06/09 04:59:17;;;;;;;0.70;0.35;;;22.90;50.60;;;;;;6266289;28;20071;-51
2022/06/09 05:02:18;;;;;;;0.40;0.22;;;23.10;50.70;;;;;;6269309;28;20417;-51
2022/06/09 05:05:23;;;;;;;1.08;0.30;;;23.10;50.80;;;;;;6267543;27;20295;-50
2022/06/09 05:08:25;;;;;;;0.63;0.30;;;23.10;50.90;;;;;;6262970;28;20056;-51
2022/06/09 05:11:28;;;;;;;0.45;0.30;;;22.90;50.80;;;;;;6266535;28;20327;-53
2022/06/09 05:14:30;;;;;;;0.77;0.30;;;23.10;51.00;;;;;;6272231;28;20040;-51
2022/06/09 05:17:32;;;;;;;0.85;0.22;;;22.90;50.90;;;;;;6283836;28;20043;-49
2022/06/09 05:20:34;;;;;;;0.25;0.20;;;23.10;51.10;;;;;;6274053;28;20054;-53
2022/06/09 05:23:36;;;;;;;0.65;0.28;;;23.00;51.10;;;;;;6281542;28;20042;-52
2022/06/09 05:26:38;;;;;;;1.15;0.40;;;23.10;51.20;;;;;;6278732;28;20097;-49
2022/06/09 05:29:40;;;;;;;0.55;0.30;;;23.10;51.30;;;;;;6266203;28;20158;-52
2022/06/09 05:32:41;;;;;;;0.30;0.30;;;23.00;51.40;;;;;;6261239;28;20134;-49
2022/06/09 05:35:44;;;;;;;1.85;0.40;;;23.00;51.40;;;;;;6276970;28;20132;-50
2022/06/09 05:45:17;;;;;;;0.40;0.20;;;23.10;51.50;;;;;;6277023;28;20076;-50
2022/06/09 05:48:19;;;;;;;0.50;0.20;;;23.00;51.50;;;;;;6273082;28;20078;-48
2022/06/09 05:51:21;;;;;;;0.50;0.30;;;23.00;51.50;;;;;;6273160;28;20051;-52
2022/06/09 05:54:23;;;;;;;0.57;0.28;;;23.00;51.50;;;;;;6259847;28;20155;-52
2022/06/09 05:57:26;;;;;;;0.90;0.28;;;23.10;51.60;;;;;;6265386;28;20147;-53
2022/06/09 06:00:27;;;;;;;0.73;0.30;;;22.90;51.60;;;;;;6268417;28;20063;-48
2022/06/09 06:03:29;;;;;;;0.65;0.10;;;23.10;51.60;;;;;;6263382;28;20074;-52
2022/06/09 06:06:34;;;;;;;0.90;0.20;;;23.20;51.80;;;;;;6266884;28;20048;-52
2022/06/09 06:09:43;;;;;;;0.85;0.30;;;23.10;51.70;;;;;;6270556;28;20044;-49
2022/06/09 06:12:45;;;;;;;0.77;0.40;;;23.10;52.20;;;;;;6267085;28;20047;-51
2022/06/09 06:15:46;;;;;;;0.50;0.20;;;23.10;51.70;;;;;;6261388;28;20047;-51
2022/06/09 06:18:48;;;;;;;0.25;0.20;;;23.20;51.80;;;;;;6251315;28;20055;-53
2022/06/09 06:21:52;;;;;;;1.17;0.30;;;23.20;51.80;;;;;;6238462;28;20050;-53
2022/06/09 06:24:54;;;;;;;0.77;0.20;;;23.20;51.90;;;;;;6224901;28;20044;-52
2022/06/09 06:27:55;;;;;;;0.75;0.30;;;23.20;51.90;;;;;;6227359;28;20071;-53
2022/06/09 06:30:57;;;;;;;2.15;0.60;;;23.30;52.00;;;;;;6234169;28;20127;-53
2022/06/09 06:33:59;;;;;;;3.90;0.68;;;23.20;52.10;;;;;;6231073;28;20109;-51
2022/06/09 06:37:01;;;;;;;2.22;0.52;;;23.20;52.20;;;;;;6230808;28;20150;-54
2022/06/09 06:40:03;;;;;;;4.20;0.80;;;23.20;52.20;;;;;;6217575;28;20052;-54
2022/06/09 06:43:05;;;;;;;2.25;0.77;;;23.30;52.40;;;;;;6224748;28;21384;-51
2022/06/09 06:46:09;;;;;;;2.63;0.93;;;23.30;52.40;;;;;;6204307;28;20052;-55
2022/06/09 06:49:11;;;;;;;3.70;0.85;;;23.10;52.40;;;;;;6188967;28;20047;-53
2022/06/09 06:52:13;;;;;;;5.40;1.40;;;23.20;52.40;;;;;;6174092;28;20048;-51
2022/06/09 06:55:17;;;;;;;5.28;1.17;;;23.30;52.40;;;;;;6174527;28;20071;-54
2022/06/09 06:58:19;;;;;;;3.60;1.10;;;23.20;52.40;;;;;;6103004;28;20194;-50
2022/06/09 07:01:20;;;;;;;2.50;1.05;;;23.30;52.50;;;;;;6092735;28;22013;-50
2022/06/09 07:04:22;;;;;;;2.40;0.63;;;23.30;52.50;;;;;;6092232;28;20085;-51
2022/06/09 07:07:25;;;;;;;4.10;0.80;;;23.30;52.60;;;;;;6017488;28;21238;-49
2022/06/09 07:10:26;;;;;;;1.48;0.70;;;23.30;52.60;;;;;;6077735;28;20040;-54
2022/06/09 07:13:28;;;;;;;2.55;0.98;;;23.30;52.60;;;;;;6061956;28;20085;-53
2022/06/09 07:16:30;;;;;;;4.30;0.38;;;23.30;52.90;;;;;;6025693;28;21681;-56
2022/06/09 07:19:48;;;;;;;2.50;0.63;;;23.40;52.80;;;;;;6063911;28;20081;-55
2022/06/09 07:22:50;;;;;;;1.75;0.50;;;23.30;52.80;;;;;;6053359;28;21419;-53
2022/06/09 07:25:52;;;;;;;1.00;0.60;;;23.30;52.70;;;;;;6063970;27;20082;-58
2022/06/09 07:28:53;;;;;;;1.77;1.00;;;23.40;52.80;;;;;;6054159;28;23654;-55
2022/06/09 07:31:55;;;;;;;2.35;0.50;;;23.40;52.70;;;;;;6022795;28;20050;-51
2022/06/09 07:34:57;;;;;;;5.38;1.00;;;23.40;52.70;;;;;;5999971;28;24427;-50
2022/06/09 07:38:01;;;;;;;4.57;1.10;;;23.50;52.80;;;;;;5992421;28;20043;-50
2022/06/09 07:41:03;;;;;;;4.10;0.77;;;23.40;52.60;;;;;;6007095;28;20121;-51
2022/06/09 07:44:25;;;;;;;4.45;0.80;;;23.40;52.70;;;;;;6013554;28;20174;-52
2022/06/09 07:47:26;;;;;;;4.68;1.25;;;23.50;52.60;;;;;;6012508;27;20051;-52
2022/06/09 07:50:29;;;;;;;6.78;1.60;;;23.60;52.60;;;;;;6007415;28;20071;-50
2022/06/09 07:53:31;;;;;;;3.70;0.90;;;23.50;52.40;;;;;;6019452;28;21805;-47
2022/06/09 07:56:33;;;;;;;3.47;0.98;;;23.60;52.40;;;;;;6009719;28;20031;-54
2022/06/09 07:59:35;;;;;;;3.97;0.98;;;23.40;52.10;;;;;;6033895;28;20090;-51
2022/06/09 08:02:37;;;;;;;6.20;1.35;;;23.60;52.20;;;;;;5988693;28;20048;-53
2022/06/09 08:05:39;;;;;;;6.85;1.58;;;23.60;52.00;;;;;;6017403;28;20054;-48
2022/06/09 08:08:41;;;;;;;6.85;1.30;;;23.60;51.80;;;;;;6007081;28;20079;-52
2022/06/09 08:11:44;;;;;;;6.75;1.23;;;23.60;51.60;;;;;;6025680;28;20164;-52
2022/06/09 08:14:46;;;;;;;4.07;0.90;;;23.80;51.60;;;;;;6012838;28;20052;-49
2022/06/09 08:17:47;;;;;;;5.68;1.00;;;23.60;51.30;;;;;;6017328;28;20120;-49
2022/06/09 08:20:49;;;;;;;2.97;0.65;;;23.70;51.50;;;;;;6056854;28;20061;-53
2022/06/09 08:24:07;;;;;;;2.85;0.68;;;23.80;51.40;;;;;;6051290;28;20166;-52
2022/06/09 08:27:09;;;;;;;5.22;1.17;;;23.80;51.40;;;;;;6046257;28;30578;-55
2022/06/09 08:30:14;;;;;;;4.68;0.90;;;23.70;51.20;;;;;;6065069;28;20126;-54
2022/06/09 08:33:16;;;;;;;5.82;1.40;;;23.90;51.20;;;;;;6049727;28;21118;-54
2022/06/09 08:36:18;;;;;;;5.40;1.10;;;23.90;51.00;;;;;;6038880;28;20086;-56
2022/06/09 08:39:21;;;;;;;6.30;1.42;;;23.80;50.80;;;;;;6048737;28;20132;-53
2022/06/09 08:42:33;;;;;;;5.32;1.20;;;23.80;50.50;;;;;;6066459;28;20039;-50
2022/06/09 08:45:37;;;;;;;5.45;1.27;;;23.80;50.20;;;;;;6075905;28;20040;-55
2022/06/09 08:48:43;;;;;;;5.03;1.10;;;23.90;50.20;;;;;;6064956;28;20124;-53
2022/06/09 08:51:49;;;;;;;2.72;0.90;;;23.80;50.10;;;;;;6052185;28;20043;-53
2022/06/09 08:54:54;;;;;;;2.75;0.60;;;23.90;50.10;;;;;;6072635;28;20040;-52
2022/06/09 08:58:00;;;;;;;6.57;1.52;;;24.00;50.20;;;;;;6039227;28;24378;-53
2022/06/09 09:01:06;;;;;;;4.53;1.08;;;24.00;50.00;;;;;;6040080;28;20044;-55
2022/06/09 09:04:18;;;;;;;10.18;1.58;;;24.00;49.70;;;;;;6054757;28;20044;-55
2022/06/09 09:07:25;;;;;;;;;;;24.00;49.10;;;;;;6036937;28;20091;-50
2022/06/09 09:10:41;;;;;;;8.95;1.48;;;24.00;49.80;;;;;;6068160;28;20095;-53
2022/06/09 09:13:48;;;;;;;5.85;0.70;;;24.00;49.20;;;;;;6040565;28;20051;-54
2022/06/09 09:17:00;;;;;;;2.58;0.60;;;24.10;49.30;;;;;;6056746;28;20039;-57
2022/06/09 09:20:09;;;;;;;2.97;0.90;;;24.10;49.20;;;;;;6025622;28;20047;-50
2022/06/09 09:23:15;;;;;;;1.23;0.50;;;24.10;49.20;;;;;;6057395;28;21843;-52
2022/06/09 09:26:27;;;;;;;1.52;0.50;;;24.00;49.10;;;;;;6087584;28;20039;-50
2022/06/09 09:29:35;;;;;;;0.65;0.28;;;24.10;49.10;;;;;;6035749;28;20166;-51
2022/06/09 09:32:41;;;;;;;1.45;0.43;;;24.20;49.10;;;;;;6000443;27;20053;-53
2022/06/09 09:35:44;;;;;;;0.45;0.20;;;24.20;48.90;;;;;;6012584;28;22979;-50
2022/06/09 09:38:58;;;;;;;1.10;0.40;;;24.20;48.80;;;;;;6028019;28;20252;-53
2022/06/09 09:42:12;;;;;;;3.13;0.40;;;24.20;48.60;;;;;;6047865;28;20047;-54
2022/06/09 09:45:17;;;;;;;5.00;0.75;;;24.20;48.30;;;;;;6044272;28;20051;-51
2022/06/09 09:48:33;;;;;;;4.10;1.25;;;24.30;48.10;;;;;;6049302;28;20047;-52
2022/06/09 09:51:38;;;;;;;1.92;0.60;;;25.20;47.80;;;;;;6053153;28;20055;-52
2022/06/09 09:54:45;;;;;;;3.38;0.63;;;24.30;47.00;;;;;;6058679;28;20050;-52
2022/06/09 09:58:15;;;;;;;2.90;0.65;;;24.30;46.80;;;;;;6028013;28;20039;-56
2022/06/09 10:01:29;;;;;;;1.45;0.45;;;24.30;46.40;;;;;;6026597;28;20062;-57
2022/06/09 10:11:55;;;;;;;1.52;0.40;;;24.30;46.00;;;;;;6078130;28;20047;-56
2022/06/09 10:15:02;;;;;;;0.65;0.20;;;24.30;45.90;;;;;;6057979;28;20055;-53
2022/06/09 10:18:22;;;;;;;0.73;0.50;;;24.20;45.60;;;;;;6053965;28;20050;-53
2022/06/09 10:21:50;;;;;;;0.60;0.25;;;24.20;45.50;;;;;;6077516;28;20044;-56
2022/06/09 10:24:56;;;;;;;0.47;0.30;;;24.30;45.40;;;;;;6099460;28;24139;-52
2022/06/09 10:28:04;;;;;;;0.75;0.30;;;24.30;45.30;;;;;;6103680;28;23239;-57
2022/06/09 10:31:13;;;;;;;0.50;0.17;;;24.20;44.90;;;;;;6086874;28;20044;-52
2022/06/09 10:34:27;;;;;;;0.88;0.20;;;24.20;44.70;;;;;;6114661;28;20040;-52
2022/06/09 10:37:41;;;;;;;1.17;0.20;;;24.20;44.70;;;;;;6134716;28;20059;-55
2022/06/09 10:40:46;;;;;;;0.50;0.20;;;24.20;44.40;;;;;;6155079;28;20144;-58
2022/06/09 10:43:57;;;;;;;0.77;0.30;;;24.20;44.30;;;;;;6146569;28;20186;-52
2022/06/09 10:57:14;;;;;;;0.98;0.30;;;24.30;43.60;;;;;;6116544;28;20043;-51
2022/06/09 11:00:21;;;;;;;0.55;0.28;;;24.20;43.50;;;;;;6120572;28;20194;-56
2022/06/09 11:03:27;;;;;;;0.47;0.30;;;24.30;43.40;;;;;;6104722;28;20044;-51
2022/06/09 11:06:42;;;;;;;0.40;0.10;;;24.20;43.30;;;;;;6156788;28;20055;-52
2022/06/09 11:09:55;;;;;;;0.98;0.30;;;24.30;43.40;;;;;;6130103;28;20051;-53
2022/06/09 11:13:16;;;;;;;0.50;0.30;;;24.20;43.50;;;;;;6147139;28;20048;-53
2022/06/09 11:16:27;;;;;;;0.63;0.43;;;24.00;43.40;;;;;;6192654;28;20051;-51
2022/06/09 11:19:44;;;;;;;0.93;0.20;;;24.30;43.70;;;;;;6188051;28;20178;-54
2022/06/09 11:23:00;;;;;;;0.45;0.30;;;24.20;43.70;;;;;;6155697;28;21048;-54
2022/06/09 11:26:12;;;;;;;0.98;0.40;;;24.40;43.80;;;;;;6155245;28;20044;-50
2022/06/09 11:29:31;;;;;;;1.58;0.65;;;24.10;43.80;;;;;;6095715;28;20236;-53
2022/06/09 11:32:40;;;;;;;0.73;0.30;;;24.30;44.00;;;;;;6143037;28;20052;-52
2022/06/09 11:35:51;;;;;;;0.90;0.20;;;24.30;44.20;;;;;;6140202;28;20059;-53
2022/06/09 11:39:05;;;;;;;0.93;0.28;;;24.30;44.30;;;;;;6122118;28;20133;-52
2022/06/09 11:42:22;;;;;;;0.60;0.20;;;24.20;44.30;;;;;;6162452;28;20049;-54
2022/06/09 11:45:41;;;;;;;0.55;0.30;;;24.30;44.40;;;;;;6151102;28;20161;-49
2022/06/09 11:48:47;;;;;;;1.80;0.40;;;24.30;44.40;;;;;;6110888;28;22582;-55
2022/06/09 11:51:50;;;;;;;0.32;0.20;;;24.20;44.40;;;;;;6121465;28;20044;-55
2022/06/09 11:55:04;;;;;;;0.55;0.20;;;24.30;44.40;;;;;;6095543;28;20329;-52
2022/06/09 11:58:07;;;;;;;0.60;0.25;;;24.30;44.40;;;;;;6061877;28;20048;-50
2022/06/09 12:01:26;;;;;;;0.20;0.10;;;24.30;44.40;;;;;;6061523;28;20055;-56
2022/06/09 12:04:54;;;;;;;0.55;0.20;;;24.40;44.50;;;;;;6040349;28;20036;-54
2022/06/09 12:08:11;;;;;;;1.38;0.28;;;24.30;44.60;;;;;;6057890;28;20048;-52
2022/06/09 12:11:18;;;;;;;0.57;0.20;;;24.30;44.60;;;;;;6068132;28;20052;-48
2022/06/09 12:14:24;;;;;;;0.75;0.28;;;24.30;44.70;;;;;;6054009;28;20079;-49
2022/06/09 12:17:32;;;;;;;0.90;0.25;;;24.30;44.70;;;;;;6037428;28;20039;-52
2022/06/09 12:20:41;;;;;;;0.47;0.20;;;24.30;44.80;;;;;;6030223;28;20048;-51
2022/06/09 12:24:19;;;;;;;0.40;0.17;;;24.30;44.80;;;;;;6061459;28;20038;-55
2022/06/09 12:27:40;;;;;;;0.60;0.30;;;24.30;44.80;;;;;;6057922;27;20141;-54
2022/06/09 12:31:05;;;;;;;;;;;24.30;44.90;;;;;;6024812;28;20056;-49
2022/06/09 12:34:16;;;;;;;0.30;0.13;;;24.30;44.90;;;;;;6049618;27;19932;-53
2022/06/09 12:37:22;;;;;;;0.85;0.25;;;24.30;45.00;;;;;;6044360;28;20051;-53
2022/06/09 12:40:31;;;;;;;0.50;0.20;;;24.20;45.00;;;;;;6018835;28;20047;-48
2022/06/09 12:44:00;;;;;;;1.30;0.17;;;24.30;45.10;;;;;;6009476;28;21975;-53
2022/06/09 12:47:12;;;;;;;0.50;0.10;;;24.30;45.30;;;;;;5988074;28;20052;-52
2022/06/09 12:50:37;;;;;;;0.93;0.38;;;24.30;45.50;;;;;;5997788;28;20163;-54
2022/06/09 12:53:41;;;;;;;0.30;0.30;;;24.30;45.50;;;;;;6041656;28;20108;-49
2022/06/09 12:56:51;;;;;;;1.27;0.30;;;24.30;45.70;;;;;;6033753;28;20087;-49
2022/06/09 13:00:03;;;;;;;0.60;0.30;;;24.40;46.30;;;;;;6021290;28;20240;-49
2022/06/09 13:03:20;;;;;;;1.00;0.43;;;24.40;45.70;;;;;;6006699;28;20148;-55
2022/06/09 13:06:27;;;;;;;0.55;0.20;;;24.50;46.00;;;;;;6046823;28;20178;-52
2022/06/09 13:09:32;;;;;;;0.68;0.20;;;24.40;45.60;;;;;;6031591;28;20056;-54
2022/06/09 13:15:56;;;;;;;2.25;0.20;;;24.50;45.70;;;;;;6057433;27;23619;-49
2022/06/09 13:19:03;;;;;;;0.55;0.22;;;24.40;45.70;;;;;;6053260;28;22765;-52
2022/06/09 13:22:11;;;;;;;0.52;0.30;;;24.50;45.90;;;;;;6063577;28;20050;-52
2022/06/09 13:25:14;;;;;;;0.32;0.20;;;24.40;45.80;;;;;;6027309;28;20066;-53
2022/06/09 13:28:31;;;;;;;0.70;0.35;;;24.50;45.80;;;;;;6064619;28;20043;-55
2022/06/09 13:31:36;;;;;;;0.57;0.20;;;24.50;45.90;;;;;;6045945;28;20051;-48
2022/06/09 13:34:44;;;;;;;0.60;0.30;;;24.40;45.70;;;;;;6058966;28;20170;-52
2022/06/09 13:37:47;;;;;;;0.95;0.25;;;24.50;45.80;;;;;;6034163;28;20051;-54
2022/06/09 13:40:58;;;;;;;1.00;0.20;;;24.60;45.70;;;;;;6017795;28;20040;-54
2022/06/09 13:44:07;;;;;;;0.77;0.30;;;24.60;45.70;;;;;;6041082;28;20031;-51
2022/06/09 13:47:16;;;;;;;0.35;0.20;;;24.50;45.70;;;;;;6028433;28;20090;-54
2022/06/09 13:50:21;;;;;;;0.40;0.10;;;24.60;45.70;;;;;;6021900;28;20044;-52
2022/06/09 13:54:20;;;;;;;2.92;0.25;;;24.70;45.90;;;;;;6056641;28;20044;-47
2022/06/09 13:57:24;;;;;;;2.40;0.32;;;24.50;45.80;;;;;;6031235;28;20044;-53
2022/06/09 14:00:28;;;;;;;1.48;0.20;;;24.60;45.90;;;;;;6046253;28;20312;-49
2022/06/09 14:03:32;;;;;;;0.60;0.30;;;24.60;46.00;;;;;;5987628;28;20039;-51
2022/06/09 14:06:34;;;;;;;0.40;0.20;;;24.60;46.00;;;;;;6048659;28;22505;-54
2022/06/09 14:09:37;;;;;;;1.70;0.50;;;24.60;45.90;;;;;;6047108;28;20158;-49
2022/06/09 14:12:38;;;;;;;0.40;0.28;;;24.70;46.00;;;;;;6028717;28;20036;-52
2022/06/09 14:15:42;;;;;;;1.63;0.40;;;24.80;46.00;;;;;;5999596;28;20050;-51
2022/06/09 14:18:44;;;;;;;1.35;0.30;;;24.70;46.00;;;;;;6010887;28;20138;-49
2022/06/09 14:21:46;;;;;;;1.98;0.38;;;24.80;46.00;;;;;;5993577;28;20086;-62
2022/06/09 14:24:48;;;;;;;1.27;0.40;;;24.90;46.00;;;;;;6033295;28;20047;-55
2022/06/09 14:27:51;;;;;;;0.85;0.20;;;24.90;45.90;;;;;;6043648;28;21458;-52
2022/06/09 14:30:52;;;;;;;1.30;0.28;;;24.90;46.00;;;;;;6012810;28;20049;-48
2022/06/09 14:33:56;;;;;;;1.40;0.30;;;25.10;46.00;;;;;;5987171;28;20051;-53
2022/06/09 14:36:58;;;;;;;1.00;0.30;;;24.90;46.00;;;;;;6005933;28;20052;-51
2022/06/09 14:40:01;;;;;;;0.70;0.30;;;25.00;46.10;;;;;;6046570;28;20043;-49
2022/06/09 14:43:03;;;;;;;1.35;0.40;;;25.10;46.30;;;;;;6022040;28;20256;-54
2022/06/09 14:46:10;;;;;;;1.52;0.30;;;24.90;46.20;;;;;;6047769;28;20129;-53
2022/06/09 14:49:15;;;;;;;1.05;0.30;;;24.90;46.10;;;;;;6050107;28;20044;-53
2022/06/09 14:52:18;;;;;;;3.17;0.70;;;25.00;46.10;;;;;;6069454;28;20043;-48
2022/06/09 14:55:20;;;;;;;1.13;0.40;;;25.00;46.20;;;;;;6064973;28;20042;-51
2022/06/09 14:58:25;;;;;;;1.50;0.52;;;25.00;46.30;;;;;;6050079;28;20096;-54
2022/06/09 15:01:27;;;;;;;0.82;0.30;;;25.10;46.20;;;;;;6033093;28;20043;-52
2022/06/09 15:04:29;;;;;;;1.40;0.43;;;25.10;46.20;;;;;;6029541;28;20051;-54
2022/06/09 15:07:31;;;;;;;2.08;0.40;;;25.20;46.20;;;;;;6037971;27;20058;-54
2022/06/09 15:10:38;;;;;;;2.03;0.40;;;25.10;46.20;;;;;;6023507;28;20144;-52
2022/06/09 15:13:40;;;;;;;1.15;0.40;;;25.10;46.40;;;;;;6027039;28;20047;-51
2022/06/09 15:16:41;;;;;;;1.50;0.30;;;25.10;46.30;;;;;;6037240;28;20051;-52
2022/06/09 15:19:48;;;;;;;1.58;0.32;;;25.10;46.40;;;;;;6014257;28;20135;-51
2022/06/09 15:22:56;;;;;;;0.88;0.30;;;25.10;46.60;;;;;;6027698;28;20154;-56
2022/06/09 15:25:58;;;;;;;0.82;0.50;;;25.10;46.80;;;;;;6069903;28;20140;-56
2022/06/09 15:29:02;;;;;;;0.50;0.28;;;25.20;47.00;;;;;;6074868;28;20123;-51
2022/06/09 15:32:04;;;;;;;1.27;0.40;;;25.10;47.00;;;;;;6086887;28;20128;-53
2022/06/09 15:35:14;;;;;;;1.23;0.40;;;25.00;47.10;;;;;;6064559;28;20044;-49
2022/06/09 15:38:16;;;;;;;0.93;0.25;;;25.10;47.20;;;;;;6032766;28;20137;-50
2022/06/09 15:41:19;;;;;;;1.13;0.50;;;25.00;47.40;;;;;;6061137;28;22409;-51
2022/06/09 15:44:20;;;;;;;1.45;0.40;;;25.00;47.40;;;;;;6106018;28;20158;-49
2022/06/09 15:47:22;;;;;;;1.45;0.57;;;24.90;47.40;;;;;;6127170;28;20199;-52
2022/06/09 15:50:25;;;;;;;0.90;0.50;;;25.20;47.60;;;;;;6119972;28;20050;-49
2022/06/09 15:53:28;;;;;;;0.45;0.20;;;25.00;47.60;;;;;;6107817;28;20084;-51
2022/06/09 15:56:30;;;;;;;2.30;0.40;;;25.10;47.80;;;;;;6084635;28;20287;-48
2022/06/09 15:59:31;;;;;;;0.82;0.20;;;25.00;47.80;;;;;;6073767;28;20048;-51
2022/06/09 16:02:33;;;;;;;1.25;0.35;;;25.10;47.90;;;;;;6118642;28;21856;-48
2022/06/09 16:05:36;;;;;;;0.80;0.20;;;25.00;47.90;;;;;;6127091;28;20047;-49
2022/06/09 16:08:38;;;;;;;0.43;0.35;;;25.20;48.10;;;;;;6088186;28;22474;-49
2022/06/09 16:11:41;;;;;;;0.40;0.20;;;25.10;48.00;;;;;;6141229;28;20146;-50
2022/06/09 16:14:43;;;;;;;0.95;0.30;;;24.90;48.00;;;;;;6122387;28;20192;-48
2022/06/09 16:17:46;;;;;;;0.60;0.25;;;24.80;47.90;;;;;;6141986;28;20166;-53
2022/06/09 16:20:49;;;;;;;1.45;0.30;;;25.00;48.00;;;;;;6171799;28;20056;-55
2022/06/09 16:23:51;;;;;;;0.63;0.10;;;24.90;47.90;;;;;;6176336;28;20043;-51
2022/06/09 16:26:53;;;;;;;0.43;0.20;;;24.90;48.00;;;;;;6197414;28;20075;-50
2022/06/09 16:29:55;;;;;;;1.63;0.40;;;24.90;48.00;;;;;;6206705;28;20036;-52
2022/06/09 16:32:57;;;;;;;0.88;0.20;;;24.90;48.00;;;;;;6196988;28;20086;-53
2022/06/09 16:35:58;;;;;;;1.20;0.20;;;24.70;47.90;;;;;;6215635;28;20920;-55